This is the latest recevied weather packets stored in our database for station/object KE8URB. If no packets are shown the sender has not sent any weather packets the latest 10 day(s).
| Time | Temp. | Humidity | Pressure | Rain* | Wind** | Luminosity | Snow |
|---|---|---|---|---|---|---|---|
| 1787862927 | 25° C | 77% | 1014.7 hPa | 0 mm | - | 65 W/m² | - |
| 1787862622 | 25° C | 78% | 1014.7 hPa | 0 mm | - | 50 W/m² | - |
| 1787862317 | 24.44° C | 79% | 1014.9 hPa | 0 mm | - | 61 W/m² | - |
| 1787862013 | 25° C | 78% | 1014.8 hPa | 0 mm | - | 57 W/m² | - |
| 1787861713 | 25° C | 78% | 1014.8 hPa | 0 mm | - | 76 W/m² | - |
| 1787861411 | 25° C | 77% | 1014.8 hPa | 0 mm | - | 84 W/m² | - |
| 1787861106 | 25° C | 77% | 1015.1 hPa | 0 mm | - | 49 W/m² | - |
| 1787860804 | 25.56° C | 76% | 1015 hPa | 0 mm | - | 41 W/m² | - |
| 1787860499 | 26.67° C | 71% | 1015 hPa | 0 mm | - | 102 W/m² | - |
| 1787860194 | 26.67° C | 71% | 1014.6 hPa | 0 mm | - | 72 W/m² | - |
| 1787859890 | 27.78° C | 67% | 1014.9 hPa | 0 mm | - | 322 W/m² | - |
| 1787859585 | 27.22° C | 70% | 1014.9 hPa | 0 mm | - | 439 W/m² | - |
| 1787859284 | 27.22° C | 71% | 1015 hPa | 0 mm | - | 142 W/m² | - |
| 1787858982 | 27.78° C | 70% | 1014.9 hPa | 0 mm | - | 105 W/m² | - |
| 1787858677 | 28.33° C | 68% | 1014.7 hPa | 0 mm | - | 497 W/m² | - |
| 1787858372 | 28.33° C | 69% | 1014.7 hPa | 0 mm | - | 576 W/m² | - |
| 1787858067 | 27.78° C | 68% | 1014.9 hPa | 0 mm | - | 568 W/m² | - |
| 1787857762 | 27.78° C | 70% | 1014.8 hPa | 0 mm | - | 579 W/m² | - |
| 1787857458 | 27.22° C | 69% | 1014.9 hPa | 0 mm | - | 560 W/m² | - |
| 1787857156 | 26.67° C | 68% | 1014.8 hPa | 0 mm | - | 107 W/m² | - |
| 1787856851 | 27.78° C | 68% | 1014.8 hPa | 0 mm | - | 142 W/m² | - |
| 1787856551 | 27.22° C | 69% | 1015 hPa | 0 mm | - | 505 W/m² | - |
| 1787856246 | 26.67° C | 76% | 1015.3 hPa | 0 mm | - | 580 W/m² | - |
| 1787855942 | 26.67° C | 76% | 1015.2 hPa | 0 mm | - | 348 W/m² | - |
| 1787855641 | 26.67° C | 72% | 1015.2 hPa | 0 mm | - | 416 W/m² | - |
* Rain latest hour (hover to see other rain measurements)
** Current wind speed in m/s (hover to see current wind gust speed)